sensor_id;sensor_type;location;lat;lon;timestamp;temperature;humidity
8475;DHT22;4274;52.012;8.448;2024-02-15T00:00:21;10.90;99.90
8475;DHT22;4274;52.012;8.448;2024-02-15T00:02:48;10.90;99.90
8475;DHT22;4274;52.012;8.448;2024-02-15T00:05:14;10.90;99.90
8475;DHT22;4274;52.012;8.448;2024-02-15T00:07:43;10.90;99.90
8475;DHT22;4274;52.012;8.448;2024-02-15T00:10:09;10.90;99.90
8475;DHT22;4274;52.012;8.448;2024-02-15T00:12:35;10.90;99.90
8475;DHT22;4274;52.012;8.448;2024-02-15T00:15:01;10.90;99.90
8475;DHT22;4274;52.012;8.448;2024-02-15T00:17:27;10.90;99.90
8475;DHT22;4274;52.012;8.448;2024-02-15T00:19:54;10.90;99.90
8475;DHT22;4274;52.012;8.448;2024-02-15T00:22:20;10.90;99.90
8475;DHT22;4274;52.012;8.448;2024-02-15T00:24:46;10.90;99.90
8475;DHT22;4274;52.012;8.448;2024-02-15T00:27:16;10.90;99.90
8475;DHT22;4274;52.012;8.448;2024-02-15T00:29:42;10.90;99.90
8475;DHT22;4274;52.012;8.448;2024-02-15T00:32:09;10.90;99.90
8475;DHT22;4274;52.012;8.448;2024-02-15T00:34:36;10.90;99.90
8475;DHT22;4274;52.012;8.448;2024-02-15T00:37:06;10.90;99.90
8475;DHT22;4274;52.012;8.448;2024-02-15T00:39:32;10.90;99.90
8475;DHT22;4274;52.012;8.448;2024-02-15T00:41:58;10.90;99.90
8475;DHT22;4274;52.012;8.448;2024-02-15T00:44:26;10.90;99.90
8475;DHT22;4274;52.012;8.448;2024-02-15T00:46:52;10.90;99.90
8475;DHT22;4274;52.012;8.448;2024-02-15T00:49:17;10.90;99.90
8475;DHT22;4274;52.012;8.448;2024-02-15T00:51:46;10.90;99.90
8475;DHT22;4274;52.012;8.448;2024-02-15T00:54:12;10.90;99.90
8475;DHT22;4274;52.012;8.448;2024-02-15T00:56:37;10.90;99.90
8475;DHT22;4274;52.012;8.448;2024-02-15T00:59:03;10.90;99.90
8475;DHT22;4274;52.012;8.448;2024-02-15T01:01:29;10.90;99.90
8475;DHT22;4274;52.012;8.448;2024-02-15T01:03:55;10.90;99.90
8475;DHT22;4274;52.012;8.448;2024-02-15T01:06:20;10.90;99.90
8475;DHT22;4274;52.012;8.448;2024-02-15T01:08:46;10.90;99.90
8475;DHT22;4274;52.012;8.448;2024-02-15T01:11:12;10.90;99.90
8475;DHT22;4274;52.012;8.448;2024-02-15T01:13:39;10.90;99.90
8475;DHT22;4274;52.012;8.448;2024-02-15T01:16:04;10.90;99.90
8475;DHT22;4274;52.012;8.448;2024-02-15T01:18:30;10.90;99.90
8475;DHT22;4274;52.012;8.448;2024-02-15T01:20:57;10.90;99.90
8475;DHT22;4274;52.012;8.448;2024-02-15T01:23:23;10.90;99.90
8475;DHT22;4274;52.012;8.448;2024-02-15T01:25:49;10.90;99.90
8475;DHT22;4274;52.012;8.448;2024-02-15T01:28:14;10.90;99.90
8475;DHT22;4274;52.012;8.448;2024-02-15T01:30:40;10.90;99.90
8475;DHT22;4274;52.012;8.448;2024-02-15T01:33:09;10.90;99.90
8475;DHT22;4274;52.012;8.448;2024-02-15T01:35:36;10.90;99.90
8475;DHT22;4274;52.012;8.448;2024-02-15T01:38:02;10.90;99.90
8475;DHT22;4274;52.012;8.448;2024-02-15T01:40:28;11.00;99.90
8475;DHT22;4274;52.012;8.448;2024-02-15T01:42:53;10.90;99.90
8475;DHT22;4274;52.012;8.448;2024-02-15T01:45:20;10.90;99.90
8475;DHT22;4274;52.012;8.448;2024-02-15T01:47:48;10.90;99.90
8475;DHT22;4274;52.012;8.448;2024-02-15T01:50:14;10.90;99.90
8475;DHT22;4274;52.012;8.448;2024-02-15T01:52:41;10.90;99.90
8475;DHT22;4274;52.012;8.448;2024-02-15T01:55:09;11.00;99.90
8475;DHT22;4274;52.012;8.448;2024-02-15T01:57:36;11.00;99.90
8475;DHT22;4274;52.012;8.448;2024-02-15T02:00:04;10.90;99.90
8475;DHT22;4274;52.012;8.448;2024-02-15T02:02:31;10.90;99.90
8475;DHT22;4274;52.012;8.448;2024-02-15T02:04:58;10.90;99.90
8475;DHT22;4274;52.012;8.448;2024-02-15T02:07:24;10.90;99.90
8475;DHT22;4274;52.012;8.448;2024-02-15T02:09:50;10.90;99.90
8475;DHT22;4274;52.012;8.448;2024-02-15T02:12:15;10.90;99.90
8475;DHT22;4274;52.012;8.448;2024-02-15T02:14:43;10.90;99.90
8475;DHT22;4274;52.012;8.448;2024-02-15T02:17:16;10.90;99.90
8475;DHT22;4274;52.012;8.448;2024-02-15T02:19:42;10.90;99.90
8475;DHT22;4274;52.012;8.448;2024-02-15T02:22:09;10.90;99.90
8475;DHT22;4274;52.012;8.448;2024-02-15T02:25:24;10.90;99.90
8475;DHT22;4274;52.012;8.448;2024-02-15T02:27:29;10.90;99.90
8475;DHT22;4274;52.012;8.448;2024-02-15T02:29:55;10.90;99.90
8475;DHT22;4274;52.012;8.448;2024-02-15T02:32:22;10.90;99.90
8475;DHT22;4274;52.012;8.448;2024-02-15T02:34:48;11.00;99.90
8475;DHT22;4274;52.012;8.448;2024-02-15T02:37:14;10.90;99.90
8475;DHT22;4274;52.012;8.448;2024-02-15T02:39:39;10.90;99.90
8475;DHT22;4274;52.012;8.448;2024-02-15T02:42:06;10.90;99.90
8475;DHT22;4274;52.012;8.448;2024-02-15T02:44:32;11.00;99.90
8475;DHT22;4274;52.012;8.448;2024-02-15T02:46:58;10.90;99.90
8475;DHT22;4274;52.012;8.448;2024-02-15T02:49:23;10.90;99.90
8475;DHT22;4274;52.012;8.448;2024-02-15T02:51:49;10.90;99.90
8475;DHT22;4274;52.012;8.448;2024-02-15T02:54:15;10.90;99.90
8475;DHT22;4274;52.012;8.448;2024-02-15T02:56:40;10.90;99.90
8475;DHT22;4274;52.012;8.448;2024-02-15T02:59:09;10.90;99.90
8475;DHT22;4274;52.012;8.448;2024-02-15T03:01:34;10.90;99.90
8475;DHT22;4274;52.012;8.448;2024-02-15T03:04:01;10.90;99.90
8475;DHT22;4274;52.012;8.448;2024-02-15T03:06:26;10.90;99.90
8475;DHT22;4274;52.012;8.448;2024-02-15T03:08:53;10.90;99.90
8475;DHT22;4274;52.012;8.448;2024-02-15T03:11:19;10.90;99.90
8475;DHT22;4274;52.012;8.448;2024-02-15T03:13:45;10.90;99.90
8475;DHT22;4274;52.012;8.448;2024-02-15T03:16:11;10.90;99.90
8475;DHT22;4274;52.012;8.448;2024-02-15T03:18:36;10.90;99.90
8475;DHT22;4274;52.012;8.448;2024-02-15T03:21:02;10.90;99.90
8475;DHT22;4274;52.012;8.448;2024-02-15T03:23:29;10.90;99.90
8475;DHT22;4274;52.012;8.448;2024-02-15T03:25:56;10.90;99.90
8475;DHT22;4274;52.012;8.448;2024-02-15T03:28:21;10.90;99.90
8475;DHT22;4274;52.012;8.448;2024-02-15T03:30:48;10.90;99.90
8475;DHT22;4274;52.012;8.448;2024-02-15T03:33:15;10.90;99.90
8475;DHT22;4274;52.012;8.448;2024-02-15T03:35:41;10.90;99.90
8475;DHT22;4274;52.012;8.448;2024-02-15T03:38:07;10.90;99.90
8475;DHT22;4274;52.012;8.448;2024-02-15T03:40:32;10.90;99.90
8475;DHT22;4274;52.012;8.448;2024-02-15T03:42:59;10.90;99.90
8475;DHT22;4274;52.012;8.448;2024-02-15T03:45:25;10.90;99.90
8475;DHT22;4274;52.012;8.448;2024-02-15T03:47:54;10.80;99.90
8475;DHT22;4274;52.012;8.448;2024-02-15T03:50:19;10.90;99.90
8475;DHT22;4274;52.012;8.448;2024-02-15T03:52:47;10.90;99.90
8475;DHT22;4274;52.012;8.448;2024-02-15T03:55:13;10.90;99.90
8475;DHT22;4274;52.012;8.448;2024-02-15T03:57:39;10.90;99.90
8475;DHT22;4274;52.012;8.448;2024-02-15T04:00:12;10.90;99.90
8475;DHT22;4274;52.012;8.448;2024-02-15T04:02:39;10.80;99.90
8475;DHT22;4274;52.012;8.448;2024-02-15T04:05:07;10.80;99.90
8475;DHT22;4274;52.012;8.448;2024-02-15T04:07:33;10.80;99.90
8475;DHT22;4274;52.012;8.448;2024-02-15T04:09:58;10.80;99.90
8475;DHT22;4274;52.012;8.448;2024-02-15T04:12:26;10.80;99.90
8475;DHT22;4274;52.012;8.448;2024-02-15T04:14:52;10.90;99.90
8475;DHT22;4274;52.012;8.448;2024-02-15T04:17:18;10.90;99.90
8475;DHT22;4274;52.012;8.448;2024-02-15T04:19:47;10.80;99.90
8475;DHT22;4274;52.012;8.448;2024-02-15T04:22:13;10.80;99.90
8475;DHT22;4274;52.012;8.448;2024-02-15T04:24:44;10.90;99.90
8475;DHT22;4274;52.012;8.448;2024-02-15T04:27:10;10.80;99.90
8475;DHT22;4274;52.012;8.448;2024-02-15T04:29:39;10.90;99.90
8475;DHT22;4274;52.012;8.448;2024-02-15T04:32:10;10.80;99.90
8475;DHT22;4274;52.012;8.448;2024-02-15T04:34:39;10.90;99.90
8475;DHT22;4274;52.012;8.448;2024-02-15T04:37:05;10.90;99.90
8475;DHT22;4274;52.012;8.448;2024-02-15T04:39:34;10.80;99.90
8475;DHT22;4274;52.012;8.448;2024-02-15T04:42:01;10.80;99.90
8475;DHT22;4274;52.012;8.448;2024-02-15T04:44:27;10.80;99.90
8475;DHT22;4274;52.012;8.448;2024-02-15T04:46:53;10.80;99.90
8475;DHT22;4274;52.012;8.448;2024-02-15T04:49:19;10.80;99.90
8475;DHT22;4274;52.012;8.448;2024-02-15T04:51:45;10.80;99.90
8475;DHT22;4274;52.012;8.448;2024-02-15T04:54:13;10.80;99.90
8475;DHT22;4274;52.012;8.448;2024-02-15T04:56:39;10.80;99.90
8475;DHT22;4274;52.012;8.448;2024-02-15T04:59:06;10.80;99.90
8475;DHT22;4274;52.012;8.448;2024-02-15T05:01:34;10.80;99.90
8475;DHT22;4274;52.012;8.448;2024-02-15T05:04:01;10.80;99.90
8475;DHT22;4274;52.012;8.448;2024-02-15T05:06:29;10.80;99.90
8475;DHT22;4274;52.012;8.448;2024-02-15T05:08:55;10.80;99.90
8475;DHT22;4274;52.012;8.448;2024-02-15T05:11:23;10.80;99.90
8475;DHT22;4274;52.012;8.448;2024-02-15T05:13:49;10.80;99.90
8475;DHT22;4274;52.012;8.448;2024-02-15T05:16:16;10.80;99.90
8475;DHT22;4274;52.012;8.448;2024-02-15T05:18:41;10.70;99.90
8475;DHT22;4274;52.012;8.448;2024-02-15T05:21:07;10.70;99.90
8475;DHT22;4274;52.012;8.448;2024-02-15T05:23:35;10.70;99.90
8475;DHT22;4274;52.012;8.448;2024-02-15T05:26:03;10.70;99.90
8475;DHT22;4274;52.012;8.448;2024-02-15T05:28:29;10.70;99.90
8475;DHT22;4274;52.012;8.448;2024-02-15T05:31:14;10.70;99.90
8475;DHT22;4274;52.012;8.448;2024-02-15T05:33:44;10.70;99.90
8475;DHT22;4274;52.012;8.448;2024-02-15T05:36:11;10.70;99.90
8475;DHT22;4274;52.012;8.448;2024-02-15T05:38:37;10.70;99.90
8475;DHT22;4274;52.012;8.448;2024-02-15T05:41:02;10.70;99.90
8475;DHT22;4274;52.012;8.448;2024-02-15T05:43:28;10.70;99.90
8475;DHT22;4274;52.012;8.448;2024-02-15T05:45:54;10.60;99.90
8475;DHT22;4274;52.012;8.448;2024-02-15T05:48:20;10.70;99.90
8475;DHT22;4274;52.012;8.448;2024-02-15T05:50:47;10.60;99.90
8475;DHT22;4274;52.012;8.448;2024-02-15T05:53:13;10.60;99.90
8475;DHT22;4274;52.012;8.448;2024-02-15T05:55:38;10.60;99.90
8475;DHT22;4274;52.012;8.448;2024-02-15T05:58:06;10.60;99.90
8475;DHT22;4274;52.012;8.448;2024-02-15T06:00:34;10.60;99.90
8475;DHT22;4274;52.012;8.448;2024-02-15T06:03:00;10.60;99.90
8475;DHT22;4274;52.012;8.448;2024-02-15T06:05:27;10.60;99.90
8475;DHT22;4274;52.012;8.448;2024-02-15T06:07:53;10.60;99.90
8475;DHT22;4274;52.012;8.448;2024-02-15T06:10:19;10.60;99.90
8475;DHT22;4274;52.012;8.448;2024-02-15T06:12:44;10.60;99.90
8475;DHT22;4274;52.012;8.448;2024-02-15T06:15:10;10.60;99.90
8475;DHT22;4274;52.012;8.448;2024-02-15T06:17:41;10.60;99.90
8475;DHT22;4274;52.012;8.448;2024-02-15T06:20:10;10.50;99.90
8475;DHT22;4274;52.012;8.448;2024-02-15T06:22:38;10.50;99.90
8475;DHT22;4274;52.012;8.448;2024-02-15T06:25:05;10.50;99.90
8475;DHT22;4274;52.012;8.448;2024-02-15T06:27:31;10.50;99.90
8475;DHT22;4274;52.012;8.448;2024-02-15T06:29:57;10.50;99.90
8475;DHT22;4274;52.012;8.448;2024-02-15T06:32:43;10.50;99.90
8475;DHT22;4274;52.012;8.448;2024-02-15T06:35:27;10.50;99.90
8475;DHT22;4274;52.012;8.448;2024-02-15T06:38:11;10.50;99.90
8475;DHT22;4274;52.012;8.448;2024-02-15T06:40:55;10.50;99.90
8475;DHT22;4274;52.012;8.448;2024-02-15T06:43:21;10.50;99.90
8475;DHT22;4274;52.012;8.448;2024-02-15T06:45:47;10.40;99.90
8475;DHT22;4274;52.012;8.448;2024-02-15T06:48:13;10.40;99.90
8475;DHT22;4274;52.012;8.448;2024-02-15T06:50:39;10.40;99.90
8475;DHT22;4274;52.012;8.448;2024-02-15T06:53:05;10.40;99.90
8475;DHT22;4274;52.012;8.448;2024-02-15T06:55:31;10.40;99.90
8475;DHT22;4274;52.012;8.448;2024-02-15T06:57:56;10.40;99.90
8475;DHT22;4274;52.012;8.448;2024-02-15T07:00:22;10.40;99.90
8475;DHT22;4274;52.012;8.448;2024-02-15T07:02:48;10.40;99.90
8475;DHT22;4274;52.012;8.448;2024-02-15T07:05:14;10.40;99.90
8475;DHT22;4274;52.012;8.448;2024-02-15T07:07:42;10.40;99.90
8475;DHT22;4274;52.012;8.448;2024-02-15T07:10:09;10.40;99.90
8475;DHT22;4274;52.012;8.448;2024-02-15T07:12:36;10.40;99.90
8475;DHT22;4274;52.012;8.448;2024-02-15T07:15:01;10.40;99.90
8475;DHT22;4274;52.012;8.448;2024-02-15T07:17:29;10.40;99.90
8475;DHT22;4274;52.012;8.448;2024-02-15T07:19:54;10.40;99.90
8475;DHT22;4274;52.012;8.448;2024-02-15T07:22:20;10.40;99.90
8475;DHT22;4274;52.012;8.448;2024-02-15T07:24:47;10.40;99.90
8475;DHT22;4274;52.012;8.448;2024-02-15T07:27:13;10.40;99.90
8475;DHT22;4274;52.012;8.448;2024-02-15T07:29:38;10.50;99.90
8475;DHT22;4274;52.012;8.448;2024-02-15T07:32:04;10.50;99.90
8475;DHT22;4274;52.012;8.448;2024-02-15T07:34:31;10.50;99.90
8475;DHT22;4274;52.012;8.448;2024-02-15T07:36:58;10.50;99.90
8475;DHT22;4274;52.012;8.448;2024-02-15T07:39:24;10.50;99.90
8475;DHT22;4274;52.012;8.448;2024-02-15T07:41:56;10.60;99.90
8475;DHT22;4274;52.012;8.448;2024-02-15T07:44:23;10.60;99.90
8475;DHT22;4274;52.012;8.448;2024-02-15T07:46:50;10.60;99.90
8475;DHT22;4274;52.012;8.448;2024-02-15T07:49:16;10.60;99.90
8475;DHT22;4274;52.012;8.448;2024-02-15T07:51:43;10.60;99.90
8475;DHT22;4274;52.012;8.448;2024-02-15T07:54:09;10.70;99.90
8475;DHT22;4274;52.012;8.448;2024-02-15T07:56:35;10.70;99.90
8475;DHT22;4274;52.012;8.448;2024-02-15T07:59:01;10.70;99.90
8475;DHT22;4274;52.012;8.448;2024-02-15T08:01:26;10.70;99.90
8475;DHT22;4274;52.012;8.448;2024-02-15T08:03:52;10.70;99.90
8475;DHT22;4274;52.012;8.448;2024-02-15T08:06:18;10.80;99.90
8475;DHT22;4274;52.012;8.448;2024-02-15T08:08:46;10.80;99.90
8475;DHT22;4274;52.012;8.448;2024-02-15T08:11:15;10.80;99.90
8475;DHT22;4274;52.012;8.448;2024-02-15T08:13:51;10.80;99.90
8475;DHT22;4274;52.012;8.448;2024-02-15T08:16:21;10.80;99.90
8475;DHT22;4274;52.012;8.448;2024-02-15T08:18:52;10.80;99.90
8475;DHT22;4274;52.012;8.448;2024-02-15T08:21:28;10.80;99.90
8475;DHT22;4274;52.012;8.448;2024-02-15T08:23:55;10.80;99.90
8475;DHT22;4274;52.012;8.448;2024-02-15T08:26:24;10.80;99.90
8475;DHT22;4274;52.012;8.448;2024-02-15T08:28:50;10.90;99.90
8475;DHT22;4274;52.012;8.448;2024-02-15T08:31:16;10.90;99.90
8475;DHT22;4274;52.012;8.448;2024-02-15T08:33:42;10.90;99.90
8475;DHT22;4274;52.012;8.448;2024-02-15T08:36:11;10.90;99.90
8475;DHT22;4274;52.012;8.448;2024-02-15T08:38:39;10.90;99.90
8475;DHT22;4274;52.012;8.448;2024-02-15T08:41:05;11.00;99.90
8475;DHT22;4274;52.012;8.448;2024-02-15T08:43:32;11.00;99.90
8475;DHT22;4274;52.012;8.448;2024-02-15T08:45:58;11.00;99.90
8475;DHT22;4274;52.012;8.448;2024-02-15T08:48:24;11.00;99.90
8475;DHT22;4274;52.012;8.448;2024-02-15T08:50:51;11.00;99.90
8475;DHT22;4274;52.012;8.448;2024-02-15T08:53:17;11.00;99.90
8475;DHT22;4274;52.012;8.448;2024-02-15T08:55:45;11.00;99.90
8475;DHT22;4274;52.012;8.448;2024-02-15T08:58:11;11.00;99.90
8475;DHT22;4274;52.012;8.448;2024-02-15T09:00:37;11.00;99.90
8475;DHT22;4274;52.012;8.448;2024-02-15T09:03:13;11.10;99.90
8475;DHT22;4274;52.012;8.448;2024-02-15T09:05:40;11.10;99.90
8475;DHT22;4274;52.012;8.448;2024-02-15T09:08:08;11.10;99.90
8475;DHT22;4274;52.012;8.448;2024-02-15T09:10:34;11.10;99.90
8475;DHT22;4274;52.012;8.448;2024-02-15T09:13:02;11.10;99.90
8475;DHT22;4274;52.012;8.448;2024-02-15T09:15:27;11.10;99.90
8475;DHT22;4274;52.012;8.448;2024-02-15T09:17:56;11.10;99.90
8475;DHT22;4274;52.012;8.448;2024-02-15T09:20:23;11.20;99.90
8475;DHT22;4274;52.012;8.448;2024-02-15T09:22:54;11.20;99.90
8475;DHT22;4274;52.012;8.448;2024-02-15T09:25:21;11.20;99.90
8475;DHT22;4274;52.012;8.448;2024-02-15T09:27:50;11.30;99.90
8475;DHT22;4274;52.012;8.448;2024-02-15T09:30:17;11.20;99.90
8475;DHT22;4274;52.012;8.448;2024-02-15T09:32:43;11.30;99.90
8475;DHT22;4274;52.012;8.448;2024-02-15T09:35:11;11.30;99.90
8475;DHT22;4274;52.012;8.448;2024-02-15T09:37:47;11.40;99.90
8475;DHT22;4274;52.012;8.448;2024-02-15T09:40:16;11.40;99.90
8475;DHT22;4274;52.012;8.448;2024-02-15T09:42:43;11.40;99.90
8475;DHT22;4274;52.012;8.448;2024-02-15T09:45:11;11.30;99.90
8475;DHT22;4274;52.012;8.448;2024-02-15T09:47:40;11.30;99.90
8475;DHT22;4274;52.012;8.448;2024-02-15T09:50:07;11.30;99.90
8475;DHT22;4274;52.012;8.448;2024-02-15T09:52:33;11.30;99.90
8475;DHT22;4274;52.012;8.448;2024-02-15T09:55:03;11.30;99.90
8475;DHT22;4274;52.012;8.448;2024-02-15T09:57:29;11.30;99.90
8475;DHT22;4274;52.012;8.448;2024-02-15T09:59:57;11.30;99.90
8475;DHT22;4274;52.012;8.448;2024-02-15T10:02:23;11.30;99.90
8475;DHT22;4274;52.012;8.448;2024-02-15T10:04:49;11.30;99.90
8475;DHT22;4274;52.012;8.448;2024-02-15T10:07:15;11.30;99.90
8475;DHT22;4274;52.012;8.448;2024-02-15T10:09:43;11.30;99.90
8475;DHT22;4274;52.012;8.448;2024-02-15T10:12:09;11.40;99.90
8475;DHT22;4274;52.012;8.448;2024-02-15T10:14:35;11.40;99.90
8475;DHT22;4274;52.012;8.448;2024-02-15T10:17:08;11.40;99.90
8475;DHT22;4274;52.012;8.448;2024-02-15T10:19:37;11.50;99.90
8475;DHT22;4274;52.012;8.448;2024-02-15T10:22:07;11.50;99.90
8475;DHT22;4274;52.012;8.448;2024-02-15T10:24:32;11.50;99.90
8475;DHT22;4274;52.012;8.448;2024-02-15T10:27:02;11.40;99.90
8475;DHT22;4274;52.012;8.448;2024-02-15T10:29:36;11.50;99.90
8475;DHT22;4274;52.012;8.448;2024-02-15T10:32:03;11.50;99.90
8475;DHT22;4274;52.012;8.448;2024-02-15T10:34:30;11.50;99.90
8475;DHT22;4274;52.012;8.448;2024-02-15T10:37:16;11.50;99.90
8475;DHT22;4274;52.012;8.448;2024-02-15T10:39:42;11.40;99.90
8475;DHT22;4274;52.012;8.448;2024-02-15T10:42:08;11.40;99.90
8475;DHT22;4274;52.012;8.448;2024-02-15T10:44:36;11.40;99.90
8475;DHT22;4274;52.012;8.448;2024-02-15T10:47:04;11.40;99.90
8475;DHT22;4274;52.012;8.448;2024-02-15T10:49:33;11.40;99.90
8475;DHT22;4274;52.012;8.448;2024-02-15T10:52:00;11.30;99.90
8475;DHT22;4274;52.012;8.448;2024-02-15T10:57:31;11.30;99.90
8475;DHT22;4274;52.012;8.448;2024-02-15T10:59:59;11.30;99.90
8475;DHT22;4274;52.012;8.448;2024-02-15T11:02:42;11.30;99.90
8475;DHT22;4274;52.012;8.448;2024-02-15T11:05:12;11.30;99.90
8475;DHT22;4274;52.012;8.448;2024-02-15T11:07:40;11.30;99.90
8475;DHT22;4274;52.012;8.448;2024-02-15T11:10:07;11.30;99.90
8475;DHT22;4274;52.012;8.448;2024-02-15T11:12:36;11.30;99.90
8475;DHT22;4274;52.012;8.448;2024-02-15T11:15:02;11.20;99.90
8475;DHT22;4274;52.012;8.448;2024-02-15T11:20:09;11.20;99.90
8475;DHT22;4274;52.012;8.448;2024-02-15T11:22:40;11.30;99.90
8475;DHT22;4274;52.012;8.448;2024-02-15T11:25:07;11.20;99.90
8475;DHT22;4274;52.012;8.448;2024-02-15T11:27:40;11.20;99.90
8475;DHT22;4274;52.012;8.448;2024-02-15T11:30:06;11.20;99.90
8475;DHT22;4274;52.012;8.448;2024-02-15T11:35:23;11.20;99.90
8475;DHT22;4274;52.012;8.448;2024-02-15T11:40:21;11.20;99.90
8475;DHT22;4274;52.012;8.448;2024-02-15T11:42:53;11.20;99.90
8475;DHT22;4274;52.012;8.448;2024-02-15T11:45:19;11.20;99.90
8475;DHT22;4274;52.012;8.448;2024-02-15T11:47:49;11.20;99.90
8475;DHT22;4274;52.012;8.448;2024-02-15T11:50:20;11.20;99.90
8475;DHT22;4274;52.012;8.448;2024-02-15T11:52:49;11.20;99.90
8475;DHT22;4274;52.012;8.448;2024-02-15T11:55:21;11.20;99.90
8475;DHT22;4274;52.012;8.448;2024-02-15T11:58:03;11.30;99.90
8475;DHT22;4274;52.012;8.448;2024-02-15T12:00:38;11.30;99.90
8475;DHT22;4274;52.012;8.448;2024-02-15T12:03:23;11.40;99.90
8475;DHT22;4274;52.012;8.448;2024-02-15T12:06:08;11.40;99.90
8475;DHT22;4274;52.012;8.448;2024-02-15T12:08:53;11.50;99.90
8475;DHT22;4274;52.012;8.448;2024-02-15T12:11:37;11.50;99.90
8475;DHT22;4274;52.012;8.448;2024-02-15T12:14:22;11.50;99.90
8475;DHT22;4274;52.012;8.448;2024-02-15T12:17:10;11.60;99.90
8475;DHT22;4274;52.012;8.448;2024-02-15T12:19:56;11.60;99.90
8475;DHT22;4274;52.012;8.448;2024-02-15T12:22:26;11.60;99.90
8475;DHT22;4274;52.012;8.448;2024-02-15T12:24:59;11.70;99.90
8475;DHT22;4274;52.012;8.448;2024-02-15T12:27:26;11.70;99.90
8475;DHT22;4274;52.012;8.448;2024-02-15T12:29:58;11.70;99.90
8475;DHT22;4274;52.012;8.448;2024-02-15T12:32:25;11.60;99.90
8475;DHT22;4274;52.012;8.448;2024-02-15T12:34:52;11.60;99.90
8475;DHT22;4274;52.012;8.448;2024-02-15T12:37:19;11.70;99.90
8475;DHT22;4274;52.012;8.448;2024-02-15T12:39:47;11.70;99.90
8475;DHT22;4274;52.012;8.448;2024-02-15T12:42:13;11.70;99.90
8475;DHT22;4274;52.012;8.448;2024-02-15T12:44:43;11.80;99.90
8475;DHT22;4274;52.012;8.448;2024-02-15T12:47:20;11.90;99.90
8475;DHT22;4274;52.012;8.448;2024-02-15T12:49:47;11.90;99.90
8475;DHT22;4274;52.012;8.448;2024-02-15T12:52:45;12.00;99.90
8475;DHT22;4274;52.012;8.448;2024-02-15T12:55:16;12.00;99.90
8475;DHT22;4274;52.012;8.448;2024-02-15T12:57:44;12.10;99.90
8475;DHT22;4274;52.012;8.448;2024-02-15T13:00:12;12.10;99.90
8475;DHT22;4274;52.012;8.448;2024-02-15T13:02:47;12.20;99.90
8475;DHT22;4274;52.012;8.448;2024-02-15T13:05:15;12.20;99.90
8475;DHT22;4274;52.012;8.448;2024-02-15T13:07:44;12.30;99.90
8475;DHT22;4274;52.012;8.448;2024-02-15T13:10:09;12.30;99.90
8475;DHT22;4274;52.012;8.448;2024-02-15T13:12:36;12.40;99.90
8475;DHT22;4274;52.012;8.448;2024-02-15T13:15:04;12.40;99.90
8475;DHT22;4274;52.012;8.448;2024-02-15T13:17:31;12.50;99.90
8475;DHT22;4274;52.012;8.448;2024-02-15T13:19:59;12.50;99.90
8475;DHT22;4274;52.012;8.448;2024-02-15T13:22:32;12.50;99.90
8475;DHT22;4274;52.012;8.448;2024-02-15T13:24:58;12.40;99.90
8475;DHT22;4274;52.012;8.448;2024-02-15T13:27:24;12.40;99.90
8475;DHT22;4274;52.012;8.448;2024-02-15T13:29:52;12.40;99.90
8475;DHT22;4274;52.012;8.448;2024-02-15T13:32:18;12.40;99.90
8475;DHT22;4274;52.012;8.448;2024-02-15T13:34:50;12.40;99.90
8475;DHT22;4274;52.012;8.448;2024-02-15T13:37:22;12.50;99.90
8475;DHT22;4274;52.012;8.448;2024-02-15T13:39:49;12.40;99.90
8475;DHT22;4274;52.012;8.448;2024-02-15T13:42:15;12.40;99.90
8475;DHT22;4274;52.012;8.448;2024-02-15T13:44:41;12.40;99.90
8475;DHT22;4274;52.012;8.448;2024-02-15T13:47:06;12.40;99.90
8475;DHT22;4274;52.012;8.448;2024-02-15T13:49:32;12.40;99.90
8475;DHT22;4274;52.012;8.448;2024-02-15T13:51:59;12.40;99.90
8475;DHT22;4274;52.012;8.448;2024-02-15T13:54:28;12.40;99.90
8475;DHT22;4274;52.012;8.448;2024-02-15T13:56:57;12.40;99.90
8475;DHT22;4274;52.012;8.448;2024-02-15T13:59:23;12.40;99.90
8475;DHT22;4274;52.012;8.448;2024-02-15T14:01:51;12.50;99.90
8475;DHT22;4274;52.012;8.448;2024-02-15T14:04:18;12.50;99.90
8475;DHT22;4274;52.012;8.448;2024-02-15T14:06:44;12.60;99.90
8475;DHT22;4274;52.012;8.448;2024-02-15T14:09:10;12.60;99.90
8475;DHT22;4274;52.012;8.448;2024-02-15T14:11:39;12.70;99.90
8475;DHT22;4274;52.012;8.448;2024-02-15T14:14:05;12.80;99.90
8475;DHT22;4274;52.012;8.448;2024-02-15T14:16:31;12.80;99.90
8475;DHT22;4274;52.012;8.448;2024-02-15T14:18:58;12.80;99.90
8475;DHT22;4274;52.012;8.448;2024-02-15T14:21:24;12.80;99.90
8475;DHT22;4274;52.012;8.448;2024-02-15T14:23:50;12.80;99.90
8475;DHT22;4274;52.012;8.448;2024-02-15T14:26:16;12.80;99.90
8475;DHT22;4274;52.012;8.448;2024-02-15T14:28:43;12.90;99.90
8475;DHT22;4274;52.012;8.448;2024-02-15T14:31:11;12.90;99.90
8475;DHT22;4274;52.012;8.448;2024-02-15T14:34:15;12.90;99.90
8475;DHT22;4274;52.012;8.448;2024-02-15T14:36:41;12.90;99.90
8475;DHT22;4274;52.012;8.448;2024-02-15T14:39:08;12.90;99.90
8475;DHT22;4274;52.012;8.448;2024-02-15T14:41:34;12.90;99.90
8475;DHT22;4274;52.012;8.448;2024-02-15T14:44:00;12.90;99.90
8475;DHT22;4274;52.012;8.448;2024-02-15T14:46:26;12.90;99.90
8475;DHT22;4274;52.012;8.448;2024-02-15T14:48:52;12.90;99.90
8475;DHT22;4274;52.012;8.448;2024-02-15T14:51:19;12.90;99.90
8475;DHT22;4274;52.012;8.448;2024-02-15T14:53:45;13.00;99.90
8475;DHT22;4274;52.012;8.448;2024-02-15T14:56:11;12.90;99.90
8475;DHT22;4274;52.012;8.448;2024-02-15T14:58:36;12.90;99.90
8475;DHT22;4274;52.012;8.448;2024-02-15T15:01:02;12.90;99.90
8475;DHT22;4274;52.012;8.448;2024-02-15T15:03:31;12.90;99.90
8475;DHT22;4274;52.012;8.448;2024-02-15T15:06:03;12.90;99.90
8475;DHT22;4274;52.012;8.448;2024-02-15T15:08:47;12.90;99.90
8475;DHT22;4274;52.012;8.448;2024-02-15T15:11:31;12.90;99.90
8475;DHT22;4274;52.012;8.448;2024-02-15T15:14:16;12.90;99.90
8475;DHT22;4274;52.012;8.448;2024-02-15T15:16:42;12.90;99.90
8475;DHT22;4274;52.012;8.448;2024-02-15T15:19:08;12.90;99.90
8475;DHT22;4274;52.012;8.448;2024-02-15T15:21:34;12.90;99.90
8475;DHT22;4274;52.012;8.448;2024-02-15T15:23:59;12.90;99.90
8475;DHT22;4274;52.012;8.448;2024-02-15T15:26:25;12.80;99.90
8475;DHT22;4274;52.012;8.448;2024-02-15T15:28:51;12.80;99.90
8475;DHT22;4274;52.012;8.448;2024-02-15T15:31:17;12.80;99.90
8475;DHT22;4274;52.012;8.448;2024-02-15T15:33:45;12.80;99.90
8475;DHT22;4274;52.012;8.448;2024-02-15T15:36:10;12.80;99.90
8475;DHT22;4274;52.012;8.448;2024-02-15T15:38:36;12.80;99.90
8475;DHT22;4274;52.012;8.448;2024-02-15T15:41:02;12.70;99.90
8475;DHT22;4274;52.012;8.448;2024-02-15T15:43:29;12.70;99.90
8475;DHT22;4274;52.012;8.448;2024-02-15T15:45:54;12.70;99.90
8475;DHT22;4274;52.012;8.448;2024-02-15T15:48:21;12.70;99.90
8475;DHT22;4274;52.012;8.448;2024-02-15T15:50:48;12.70;99.90
8475;DHT22;4274;52.012;8.448;2024-02-15T15:53:14;12.70;99.90
8475;DHT22;4274;52.012;8.448;2024-02-15T15:55:40;12.60;99.90
8475;DHT22;4274;52.012;8.448;2024-02-15T15:58:05;12.60;99.90
8475;DHT22;4274;52.012;8.448;2024-02-15T16:00:35;12.60;99.90
8475;DHT22;4274;52.012;8.448;2024-02-15T16:03:01;12.60;99.90
8475;DHT22;4274;52.012;8.448;2024-02-15T16:05:30;12.50;99.90
8475;DHT22;4274;52.012;8.448;2024-02-15T16:07:56;12.50;99.90
8475;DHT22;4274;52.012;8.448;2024-02-15T16:10:22;12.50;99.90
8475;DHT22;4274;52.012;8.448;2024-02-15T16:12:51;12.50;99.90
8475;DHT22;4274;52.012;8.448;2024-02-15T16:15:22;12.40;99.90
8475;DHT22;4274;52.012;8.448;2024-02-15T16:17:47;12.50;99.90